ABW101 EINN-EIDW
Flight info
| Callsign | ABW101 |
|---|---|
| Flight time | 0h 38m |
| Altitude | 23000 |
| Route | AGINI3B AGINI DCT OSGAR OSGAR4L |
| Aircraft | B77L/H-SABDE1E2E3FGHIJ1J2J3J4J5M1P2RWXYZ/LB1D1 |
Departure
| Time | 2026-02-21 22:12 |
|---|---|
| Airport | Shannon Airport (EINN) |
Arrival
| Time | 2026-02-21 22:50 |
|---|---|
| Airport | Dublin Airport (EIDW) |
| Time | Latitude | Longitude | Altitude | Speed | Heading |
|---|---|---|---|---|---|
| 2026-02-21 22:04 | 52.69142 | -8.91502 | 27 ft | 0 kts | 178° |
| 2026-02-21 22:07 | 52.69147 | -8.91502 | 27 ft | 2 kts | 178° |
| 2026-02-21 22:07 | 52.69164 | -8.91503 | 27 ft | 2 kts | 179° |
| 2026-02-21 22:07 | 52.69180 | -8.91500 | 26 ft | 3 kts | 225° |
| 2026-02-21 22:07 | 52.69186 | -8.91480 | 27 ft | 3 kts | 287° |
| 2026-02-21 22:08 | 52.69180 | -8.91461 | 27 ft | 1 kts | 312° |
| 2026-02-21 22:08 | 52.69170 | -8.91442 | 25 ft | 3 kts | 312° |
| 2026-02-21 22:08 | 52.69170 | -8.91441 | 25 ft | 1 kts | 312° |
| 2026-02-21 22:10 | 52.69179 | -8.91458 | 27 ft | 13 kts | 313° |
| 2026-02-21 22:10 | 52.69419 | -8.91438 | 27 ft | 51 kts | 18° |
| 2026-02-21 22:10 | 52.69756 | -8.91250 | 27 ft | 50 kts | 18° |
| 2026-02-21 22:10 | 52.70081 | -8.91073 | 27 ft | 49 kts | 18° |
| 2026-02-21 22:11 | 52.70410 | -8.91063 | 27 ft | 47 kts | 351° |
| 2026-02-21 22:11 | 52.70723 | -8.91160 | 29 ft | 38 kts | 346° |
| 2026-02-21 22:11 | 52.70691 | -8.91452 | 30 ft | 75 kts | 232° |
| 2026-02-21 22:11 | 52.70053 | -8.92799 | 301 ft | 195 kts | 231° |
| 2026-02-21 22:12 | 52.69156 | -8.94501 | 2120 ft | 183 kts | 232° |
| 2026-02-21 22:12 | 52.68705 | -8.96430 | 4205 ft | 191 kts | 269° |
| 2026-02-21 22:12 | 52.69278 | -8.98634 | 5915 ft | 240 kts | 304° |
| 2026-02-21 22:12 | 52.70679 | -9.00224 | 7661 ft | 265 kts | 324° |
| 2026-02-21 22:13 | 52.72524 | -9.01169 | 9422 ft | 293 kts | 342° |
| 2026-02-21 22:13 | 52.74660 | -9.00955 | 10795 ft | 327 kts | 7° |
| 2026-02-21 22:13 | 52.76816 | -8.99244 | 11654 ft | 374 kts | 32° |
| 2026-02-21 22:13 | 52.78712 | -8.96011 | 12493 ft | 408 kts | 53° |
| 2026-02-21 22:14 | 52.80040 | -8.91803 | 13843 ft | 420 kts | 70° |
| 2026-02-21 22:14 | 52.80869 | -8.87107 | 15193 ft | 428 kts | 79° |
| 2026-02-21 22:14 | 52.81505 | -8.82247 | 16506 ft | 437 kts | 81° |
| 2026-02-21 22:14 | 52.82114 | -8.77258 | 17786 ft | 449 kts | 81° |
| 2026-02-21 22:15 | 52.82772 | -8.72148 | 18929 ft | 460 kts | 80° |
| 2026-02-21 22:15 | 52.83499 | -8.66938 | 20017 ft | 470 kts | 79° |
| 2026-02-21 22:15 | 52.84293 | -8.61615 | 21096 ft | 481 kts | 78° |
| 2026-02-21 22:15 | 52.84845 | -8.58043 | 21776 ft | 488 kts | 77° |
| 2026-02-21 22:16 | 52.85707 | -8.52584 | 22841 ft | 498 kts | 77° |
| 2026-02-21 22:16 | 52.86600 | -8.46998 | 23840 ft | 507 kts | 77° |
| 2026-02-21 22:16 | 52.87499 | -8.41377 | 24872 ft | 511 kts | 77° |
| 2026-02-21 22:17 | 52.88404 | -8.35701 | 26011 ft | 510 kts | 77° |
| 2026-02-21 22:17 | 52.89306 | -8.30002 | 26768 ft | 512 kts | 77° |
| 2026-02-21 22:17 | 52.90209 | -8.24265 | 27006 ft | 522 kts | 77° |
| 2026-02-21 22:17 | 52.91138 | -8.18313 | 26987 ft | 547 kts | 77° |
| 2026-02-21 22:18 | 52.92108 | -8.12053 | 26975 ft | 571 kts | 77° |
| 2026-02-21 22:18 | 52.93108 | -8.05570 | 26957 ft | 586 kts | 77° |
| 2026-02-21 22:18 | 52.94086 | -7.99229 | 26966 ft | 589 kts | 77° |
| 2026-02-21 22:18 | 52.95100 | -7.92641 | 26956 ft | 589 kts | 77° |
| 2026-02-21 22:19 | 52.96107 | -7.86066 | 26950 ft | 588 kts | 77° |
| 2026-02-21 22:19 | 52.97110 | -7.79487 | 26956 ft | 588 kts | 77° |
| 2026-02-21 22:19 | 52.98110 | -7.72894 | 26961 ft | 588 kts | 77° |
| 2026-02-21 22:19 | 52.99106 | -7.66294 | 26958 ft | 588 kts | 77° |
| 2026-02-21 22:20 | 53.00093 | -7.59722 | 26929 ft | 588 kts | 77° |
| 2026-02-21 22:20 | 53.01065 | -7.53222 | 26950 ft | 586 kts | 77° |
| 2026-02-21 22:20 | 53.02043 | -7.46663 | 26811 ft | 581 kts | 77° |
| 2026-02-21 22:20 | 53.02693 | -7.42283 | 26280 ft | 573 kts | 77° |
| 2026-02-21 22:21 | 53.03623 | -7.36011 | 25322 ft | 563 kts | 77° |
| 2026-02-21 22:21 | 53.04528 | -7.29754 | 24367 ft | 550 kts | 80° |
| 2026-02-21 22:21 | 53.04912 | -7.25536 | 23704 ft | 542 kts | 89° |
| 2026-02-21 22:22 | 53.04719 | -7.19447 | 22545 ft | 513 kts | 101° |
| 2026-02-21 22:22 | 53.04521 | -7.13592 | 21272 ft | 517 kts | 92° |
| 2026-02-21 22:22 | 53.04886 | -7.07666 | 20180 ft | 513 kts | 83° |
| 2026-02-21 22:22 | 53.05459 | -7.01838 | 19238 ft | 506 kts | 83° |
| 2026-02-21 22:23 | 53.05971 | -6.96227 | 18406 ft | 498 kts | 84° |
| 2026-02-21 22:23 | 53.06587 | -6.88756 | 17370 ft | 487 kts | 85° |
| 2026-02-21 22:23 | 53.06876 | -6.84962 | 17168 ft | 491 kts | 85° |
| 2026-02-21 22:23 | 53.07291 | -6.79345 | 16979 ft | 484 kts | 86° |
| 2026-02-21 22:24 | 53.07686 | -6.73922 | 16948 ft | 474 kts | 86° |
| 2026-02-21 22:24 | 53.08077 | -6.68511 | 16787 ft | 468 kts | 86° |
| 2026-02-21 22:24 | 53.08462 | -6.63170 | 16128 ft | 461 kts | 86° |
| 2026-02-21 22:24 | 53.08840 | -6.57901 | 15316 ft | 455 kts | 85° |
| 2026-02-21 22:25 | 53.09213 | -6.52697 | 14443 ft | 450 kts | 85° |
| 2026-02-21 22:25 | 53.09580 | -6.47565 | 13659 ft | 445 kts | 85° |
| 2026-02-21 22:25 | 53.09937 | -6.42533 | 13186 ft | 429 kts | 85° |
| 2026-02-21 22:25 | 53.10281 | -6.37684 | 12831 ft | 413 kts | 85° |
| 2026-02-21 22:26 | 53.10493 | -6.34648 | 12547 ft | 404 kts | 85° |
| 2026-02-21 22:26 | 53.10814 | -6.30054 | 12101 ft | 394 kts | 85° |
| 2026-02-21 22:26 | 53.11122 | -6.25627 | 11572 ft | 388 kts | 85° |
| 2026-02-21 22:27 | 53.11433 | -6.21123 | 10889 ft | 386 kts | 86° |
| 2026-02-21 22:27 | 53.11736 | -6.16697 | 10291 ft | 383 kts | 85° |
| 2026-02-21 22:27 | 53.12030 | -6.12373 | 9735 ft | 378 kts | 85° |
| 2026-02-21 22:27 | 53.12325 | -6.08027 | 9188 ft | 371 kts | 85° |
| 2026-02-21 22:28 | 53.12611 | -6.03802 | 8580 ft | 366 kts | 85° |
| 2026-02-21 22:28 | 53.12887 | -5.99701 | 7987 ft | 363 kts | 85° |
| 2026-02-21 22:28 | 53.13165 | -5.95542 | 7390 ft | 359 kts | 85° |
| 2026-02-21 22:28 | 53.13573 | -5.91467 | 7086 ft | 361 kts | 72° |
| 2026-02-21 22:29 | 53.14791 | -5.87819 | 6962 ft | 359 kts | 46° |
| 2026-02-21 22:29 | 53.16682 | -5.85313 | 6957 ft | 346 kts | 22° |
| 2026-02-21 22:29 | 53.18919 | -5.84113 | 6960 ft | 334 kts | 2° |
| 2026-02-21 22:29 | 53.21192 | -5.84011 | 6707 ft | 320 kts | 345° |
| 2026-02-21 22:30 | 53.23307 | -5.84876 | 6106 ft | 309 kts | 336° |
| 2026-02-21 22:30 | 53.25327 | -5.85914 | 5721 ft | 297 kts | 335° |
| 2026-02-21 22:30 | 53.27270 | -5.86924 | 5375 ft | 286 kts | 335° |
| 2026-02-21 22:30 | 53.29125 | -5.87875 | 5117 ft | 272 kts | 335° |
| 2026-02-21 22:31 | 53.30902 | -5.88776 | 4872 ft | 261 kts | 335° |
| 2026-02-21 22:31 | 53.32605 | -5.89631 | 4636 ft | 250 kts | 335° |
| 2026-02-21 22:31 | 53.34242 | -5.90447 | 4387 ft | 241 kts | 335° |
| 2026-02-21 22:31 | 53.35801 | -5.91218 | 4165 ft | 232 kts | 335° |
| 2026-02-21 22:32 | 53.37324 | -5.91974 | 3954 ft | 227 kts | 334° |
| 2026-02-21 22:32 | 53.38833 | -5.92725 | 3751 ft | 223 kts | 334° |
| 2026-02-21 22:32 | 53.40293 | -5.93446 | 3568 ft | 211 kts | 333° |
| 2026-02-21 22:32 | 53.41456 | -5.94602 | 3363 ft | 185 kts | 301° |
| 2026-02-21 22:33 | 53.41869 | -5.96492 | 3208 ft | 168 kts | 273° |
| 2026-02-21 22:33 | 53.42006 | -5.98449 | 3102 ft | 170 kts | 272° |
| 2026-02-21 22:33 | 53.42132 | -6.00445 | 3042 ft | 174 kts | 272° |
| 2026-02-21 22:33 | 53.42251 | -6.02496 | 2812 ft | 178 kts | 272° |
| 2026-02-21 22:34 | 53.42369 | -6.04541 | 2578 ft | 173 kts | 272° |
| 2026-02-21 22:34 | 53.42481 | -6.06506 | 2356 ft | 166 kts | 271° |
| 2026-02-21 22:34 | 53.42590 | -6.08415 | 2116 ft | 162 kts | 271° |
| 2026-02-21 22:34 | 53.42695 | -6.10251 | 1912 ft | 158 kts | 271° |
| 2026-02-21 22:35 | 53.42800 | -6.12081 | 1712 ft | 156 kts | 271° |
| 2026-02-21 22:35 | 53.42903 | -6.13882 | 1491 ft | 155 kts | 270° |
| 2026-02-21 22:35 | 53.43005 | -6.15657 | 1282 ft | 147 kts | 270° |
| 2026-02-21 22:35 | 53.43097 | -6.17272 | 1079 ft | 131 kts | 269° |
| 2026-02-21 22:36 | 53.43180 | -6.18754 | 914 ft | 127 kts | 268° |
| 2026-02-21 22:36 | 53.43236 | -6.20291 | 714 ft | 136 kts | 276° |
| 2026-02-21 22:36 | 53.43382 | -6.21878 | 626 ft | 143 kts | 275° |
| 2026-02-21 22:36 | 53.43483 | -6.23836 | 470 ft | 170 kts | 272° |
| 2026-02-21 22:37 | 53.43587 | -6.25646 | 235 ft | 145 kts | 273° |
| 2026-02-21 22:37 | 53.43665 | -6.27060 | 359 ft | 104 kts | 270° |
| 2026-02-21 22:37 | 53.43728 | -6.28540 | 955 ft | 152 kts | 271° |
| 2026-02-21 22:37 | 53.43814 | -6.30132 | 2282 ft | 146 kts | 270° |
| 2026-02-21 22:38 | 53.43916 | -6.31956 | 2867 ft | 168 kts | 271° |
| 2026-02-21 22:38 | 53.44119 | -6.33942 | 2963 ft | 189 kts | 279° |
| 2026-02-21 22:38 | 53.44438 | -6.36264 | 2986 ft | 214 kts | 282° |
| 2026-02-21 22:38 | 53.45262 | -6.38413 | 2988 ft | 231 kts | 311° |
| 2026-02-21 22:39 | 53.46760 | -6.39618 | 2968 ft | 253 kts | 341° |
| 2026-02-21 22:39 | 53.48608 | -6.39432 | 2980 ft | 281 kts | 10° |
| 2026-02-21 22:39 | 53.50336 | -6.37781 | 2974 ft | 293 kts | 39° |
| 2026-02-21 22:39 | 53.51508 | -6.34973 | 2979 ft | 298 kts | 67° |
| 2026-02-21 22:40 | 53.51954 | -6.31614 | 2989 ft | 294 kts | 85° |
| 2026-02-21 22:40 | 53.52129 | -6.28174 | 2984 ft | 296 kts | 88° |
| 2026-02-21 22:40 | 53.52263 | -6.24719 | 2997 ft | 297 kts | 88° |
| 2026-02-21 22:40 | 53.52395 | -6.21255 | 2979 ft | 296 kts | 88° |
| 2026-02-21 22:41 | 53.52518 | -6.17818 | 2984 ft | 294 kts | 88° |
| 2026-02-21 22:41 | 53.52531 | -6.14423 | 2979 ft | 288 kts | 97° |
| 2026-02-21 22:41 | 53.52330 | -6.11110 | 2988 ft | 289 kts | 98° |
| 2026-02-21 22:41 | 53.52111 | -6.07733 | 2980 ft | 291 kts | 98° |
| 2026-02-21 22:42 | 53.51890 | -6.04344 | 2984 ft | 292 kts | 98° |
| 2026-02-21 22:42 | 53.50562 | -5.98166 | 2998 ft | 284 kts | 123° |
| 2026-02-21 22:42 | 53.49613 | -5.95221 | 2997 ft | 287 kts | 123° |
| 2026-02-21 22:43 | 53.48666 | -5.92279 | 2987 ft | 283 kts | 123° |
| 2026-02-21 22:43 | 53.47612 | -5.89655 | 2972 ft | 260 kts | 143° |
| 2026-02-21 22:43 | 53.46163 | -5.88245 | 2911 ft | 226 kts | 174° |
| 2026-02-21 22:43 | 53.44724 | -5.88290 | 2783 ft | 193 kts | 207° |
| 2026-02-21 22:44 | 53.43747 | -5.89529 | 2621 ft | 166 kts | 235° |
| 2026-02-21 22:44 | 53.43084 | -5.91021 | 2538 ft | 154 kts | 238° |
| 2026-02-21 22:44 | 53.42484 | -5.92414 | 2490 ft | 145 kts | 238° |
| 2026-02-21 22:44 | 53.42109 | -5.93951 | 2466 ft | 147 kts | 266° |
| 2026-02-21 22:45 | 53.42129 | -5.95653 | 2475 ft | 146 kts | 267° |
| 2026-02-21 22:45 | 53.42094 | -5.97389 | 2485 ft | 152 kts | 266° |
| 2026-02-21 22:45 | 53.42109 | -5.99209 | 2479 ft | 156 kts | 269° |
| 2026-02-21 22:45 | 53.42181 | -6.01026 | 2470 ft | 156 kts | 271° |
| 2026-02-21 22:46 | 53.42273 | -6.02804 | 2465 ft | 155 kts | 271° |
| 2026-02-21 22:46 | 53.42373 | -6.04601 | 2467 ft | 154 kts | 271° |
| 2026-02-21 22:46 | 53.42475 | -6.06405 | 2337 ft | 159 kts | 271° |
| 2026-02-21 22:46 | 53.42579 | -6.08245 | 2117 ft | 157 kts | 272° |
| 2026-02-21 22:47 | 53.42683 | -6.10018 | 1911 ft | 145 kts | 271° |
| 2026-02-21 22:47 | 53.42776 | -6.11630 | 1738 ft | 136 kts | 271° |
| 2026-02-21 22:47 | 53.42866 | -6.13206 | 1560 ft | 135 kts | 270° |
| 2026-02-21 22:47 | 53.42953 | -6.14726 | 1353 ft | 126 kts | 269° |
| 2026-02-21 22:48 | 53.43034 | -6.16145 | 1199 ft | 121 kts | 269° |
| 2026-02-21 22:48 | 53.43114 | -6.17579 | 1034 ft | 126 kts | 269° |
| 2026-02-21 22:48 | 53.43205 | -6.19068 | 866 ft | 131 kts | 271° |
| 2026-02-21 22:48 | 53.43304 | -6.20630 | 681 ft | 138 kts | 272° |
| 2026-02-21 22:49 | 53.43388 | -6.22174 | 511 ft | 131 kts | 273° |
| 2026-02-21 22:49 | 53.43479 | -6.23720 | 348 ft | 137 kts | 273° |
| 2026-02-21 22:49 | 53.43572 | -6.25272 | 228 ft | 124 kts | 268° |
| 2026-02-21 22:49 | 53.43629 | -6.26534 | 219 ft | 89 kts | 276° |
| 2026-02-21 22:50 | 53.43618 | -6.27261 | 219 ft | 59 kts | 253° |
| 2026-02-21 22:50 | 53.43519 | -6.27419 | 225 ft | 14 kts | 119° |
| 2026-02-21 22:50 | 53.43499 | -6.27234 | 222 ft | 18 kts | 96° |
| 2026-02-21 22:50 | 53.43487 | -6.27012 | 221 ft | 21 kts | 95° |
| 2026-02-21 22:51 | 53.43457 | -6.26473 | 223 ft | 26 kts | 96° |
| 2026-02-21 22:51 | 53.43343 | -6.26241 | 221 ft | 27 kts | 139° |
| 2026-02-21 22:51 | 53.43315 | -6.25956 | 221 ft | 24 kts | 112° |
| 2026-02-21 22:52 | 53.43171 | -6.25816 | 219 ft | 25 kts | 156° |
| 2026-02-21 22:52 | 53.43014 | -6.25703 | 223 ft | 25 kts | 158° |
| 2026-02-21 22:52 | 53.42858 | -6.25588 | 226 ft | 22 kts | 155° |
| 2026-02-21 22:52 | 53.42758 | -6.25514 | 219 ft | 16 kts | 155° |
| 2026-02-21 22:53 | 53.42647 | -6.25516 | 219 ft | 18 kts | 212° |
| 2026-02-21 22:53 | 53.42548 | -6.25672 | 221 ft | 21 kts | 226° |
| 2026-02-21 22:53 | 53.42489 | -6.25883 | 216 ft | 22 kts | 281° |
| 2026-02-21 22:53 | 53.42507 | -6.26082 | 220 ft | 13 kts | 277° |
| 2026-02-21 22:54 | 53.42523 | -6.26157 | 216 ft | 3 kts | 319° |
| 2026-02-21 22:54 | 53.42554 | -6.26164 | 221 ft | 6 kts | 2° |
| 2026-02-21 22:54 | 53.42581 | -6.26161 | 220 ft | 4 kts | 5° |
| 2026-02-21 22:54 | 53.42593 | -6.26159 | 221 ft | 0 kts | 5° |